sensor_id;sensor_type;location;lat;lon;timestamp;temperature;humidity
24164;DHT22;12319;49.204;8.116;2023-04-01T00:01:12;11.50;89.60
24164;DHT22;12319;49.204;8.116;2023-04-01T00:03:41;11.50;89.80
24164;DHT22;12319;49.204;8.116;2023-04-01T00:06:07;11.50;89.80
24164;DHT22;12319;49.204;8.116;2023-04-01T00:08:33;11.50;89.70
24164;DHT22;12319;49.204;8.116;2023-04-01T00:10:58;11.50;89.50
24164;DHT22;12319;49.204;8.116;2023-04-01T00:13:25;11.50;89.70
24164;DHT22;12319;49.204;8.116;2023-04-01T00:15:51;11.50;89.50
24164;DHT22;12319;49.204;8.116;2023-04-01T00:18:17;11.50;89.50
24164;DHT22;12319;49.204;8.116;2023-04-01T00:20:45;11.50;89.50
24164;DHT22;12319;49.204;8.116;2023-04-01T00:23:11;11.50;89.30
24164;DHT22;12319;49.204;8.116;2023-04-01T00:25:36;11.50;89.30
24164;DHT22;12319;49.204;8.116;2023-04-01T00:28:02;11.50;89.60
24164;DHT22;12319;49.204;8.116;2023-04-01T00:30:27;11.40;89.20
24164;DHT22;12319;49.204;8.116;2023-04-01T00:32:53;11.40;89.20
24164;DHT22;12319;49.204;8.116;2023-04-01T00:35:19;11.40;89.30
24164;DHT22;12319;49.204;8.116;2023-04-01T00:37:44;11.40;89.10
24164;DHT22;12319;49.204;8.116;2023-04-01T00:40:27;11.40;89.30
24164;DHT22;12319;49.204;8.116;2023-04-01T00:42:53;11.50;89.40
24164;DHT22;12319;49.204;8.116;2023-04-01T00:45:31;11.40;89.30
24164;DHT22;12319;49.204;8.116;2023-04-01T00:47:59;11.40;89.30
24164;DHT22;12319;49.204;8.116;2023-04-01T00:50:28;11.40;89.40
24164;DHT22;12319;49.204;8.116;2023-04-01T00:52:55;11.40;88.90
24164;DHT22;12319;49.204;8.116;2023-04-01T00:55:23;11.40;89.00
24164;DHT22;12319;49.204;8.116;2023-04-01T00:57:50;11.40;89.00
24164;DHT22;12319;49.204;8.116;2023-04-01T01:00:18;11.40;88.80
24164;DHT22;12319;49.204;8.116;2023-04-01T01:02:45;11.40;88.40
24164;DHT22;12319;49.204;8.116;2023-04-01T01:05:16;11.40;88.50
24164;DHT22;12319;49.204;8.116;2023-04-01T01:08:01;11.30;88.20
24164;DHT22;12319;49.204;8.116;2023-04-01T01:10:33;11.30;88.40
24164;DHT22;12319;49.204;8.116;2023-04-01T01:13:13;11.30;88.20
24164;DHT22;12319;49.204;8.116;2023-04-01T01:16:00;11.40;88.40
24164;DHT22;12319;49.204;8.116;2023-04-01T01:21:38;11.40;88.10
24164;DHT22;12319;49.204;8.116;2023-04-01T01:27:10;11.50;88.10
24164;DHT22;12319;49.204;8.116;2023-04-01T01:30:00;11.50;87.70
24164;DHT22;12319;49.204;8.116;2023-04-01T01:32:41;11.50;87.90
24164;DHT22;12319;49.204;8.116;2023-04-01T01:38:04;11.50;88.00
24164;DHT22;12319;49.204;8.116;2023-04-01T01:40:32;11.50;88.10
24164;DHT22;12319;49.204;8.116;2023-04-01T01:43:03;11.50;88.10
24164;DHT22;12319;49.204;8.116;2023-04-01T01:45:33;11.50;88.20
24164;DHT22;12319;49.204;8.116;2023-04-01T01:48:00;11.50;87.90
24164;DHT22;12319;49.204;8.116;2023-04-01T01:50:27;11.50;87.90
24164;DHT22;12319;49.204;8.116;2023-04-01T01:53:09;11.50;88.00
24164;DHT22;12319;49.204;8.116;2023-04-01T01:55:37;11.50;88.00
24164;DHT22;12319;49.204;8.116;2023-04-01T02:00:36;11.60;87.80
24164;DHT22;12319;49.204;8.116;2023-04-01T02:03:01;11.60;87.70
24164;DHT22;12319;49.204;8.116;2023-04-01T02:05:29;11.60;88.00
24164;DHT22;12319;49.204;8.116;2023-04-01T02:08:03;11.60;88.40
24164;DHT22;12319;49.204;8.116;2023-04-01T02:10:33;11.50;88.40
24164;DHT22;12319;49.204;8.116;2023-04-01T02:13:05;11.50;88.60
24164;DHT22;12319;49.204;8.116;2023-04-01T02:15:40;11.50;88.70
24164;DHT22;12319;49.204;8.116;2023-04-01T02:18:06;11.50;89.00
24164;DHT22;12319;49.204;8.116;2023-04-01T02:20:32;11.50;89.10
24164;DHT22;12319;49.204;8.116;2023-04-01T02:22:59;11.50;89.00
24164;DHT22;12319;49.204;8.116;2023-04-01T02:25:34;11.40;89.30
24164;DHT22;12319;49.204;8.116;2023-04-01T02:28:00;11.50;89.90
24164;DHT22;12319;49.204;8.116;2023-04-01T02:30:28;11.40;90.00
24164;DHT22;12319;49.204;8.116;2023-04-01T02:32:56;11.40;90.20
24164;DHT22;12319;49.204;8.116;2023-04-01T02:35:22;11.40;90.20
24164;DHT22;12319;49.204;8.116;2023-04-01T02:37:49;11.40;90.10
24164;DHT22;12319;49.204;8.116;2023-04-01T02:40:16;11.30;90.10
24164;DHT22;12319;49.204;8.116;2023-04-01T02:42:42;11.30;90.10
24164;DHT22;12319;49.204;8.116;2023-04-01T02:45:09;11.30;90.10
24164;DHT22;12319;49.204;8.116;2023-04-01T02:47:34;11.30;90.30
24164;DHT22;12319;49.204;8.116;2023-04-01T02:50:00;11.30;90.40
24164;DHT22;12319;49.204;8.116;2023-04-01T02:52:27;11.20;90.20
24164;DHT22;12319;49.204;8.116;2023-04-01T02:54:53;11.30;90.40
24164;DHT22;12319;49.204;8.116;2023-04-01T02:57:19;11.20;90.30
24164;DHT22;12319;49.204;8.116;2023-04-01T02:59:45;11.20;90.20
24164;DHT22;12319;49.204;8.116;2023-04-01T03:02:11;11.20;90.20
24164;DHT22;12319;49.204;8.116;2023-04-01T03:04:36;11.30;90.10
24164;DHT22;12319;49.204;8.116;2023-04-01T03:07:02;11.20;90.10
24164;DHT22;12319;49.204;8.116;2023-04-01T03:09:28;11.20;89.90
24164;DHT22;12319;49.204;8.116;2023-04-01T03:11:54;11.30;90.00
24164;DHT22;12319;49.204;8.116;2023-04-01T03:14:20;11.20;90.00
24164;DHT22;12319;49.204;8.116;2023-04-01T03:16:45;11.20;90.00
24164;DHT22;12319;49.204;8.116;2023-04-01T03:19:11;11.20;90.20
24164;DHT22;12319;49.204;8.116;2023-04-01T03:21:36;11.20;90.10
24164;DHT22;12319;49.204;8.116;2023-04-01T03:24:02;11.20;89.90
24164;DHT22;12319;49.204;8.116;2023-04-01T03:26:28;11.20;89.90
24164;DHT22;12319;49.204;8.116;2023-04-01T03:28:53;11.30;90.00
24164;DHT22;12319;49.204;8.116;2023-04-01T03:31:19;11.20;90.10
24164;DHT22;12319;49.204;8.116;2023-04-01T03:33:45;11.30;90.10
24164;DHT22;12319;49.204;8.116;2023-04-01T03:36:11;11.20;90.10
24164;DHT22;12319;49.204;8.116;2023-04-01T03:38:39;11.20;90.20
24164;DHT22;12319;49.204;8.116;2023-04-01T03:41:05;11.20;90.00
24164;DHT22;12319;49.204;8.116;2023-04-01T03:43:30;11.20;90.10
24164;DHT22;12319;49.204;8.116;2023-04-01T03:45:56;11.20;90.20
24164;DHT22;12319;49.204;8.116;2023-04-01T03:48:23;11.20;90.20
24164;DHT22;12319;49.204;8.116;2023-04-01T03:50:48;11.10;90.10
24164;DHT22;12319;49.204;8.116;2023-04-01T03:53:14;11.10;90.20
24164;DHT22;12319;49.204;8.116;2023-04-01T03:55:40;11.10;90.20
24164;DHT22;12319;49.204;8.116;2023-04-01T03:58:07;11.10;90.00
24164;DHT22;12319;49.204;8.116;2023-04-01T04:00:32;11.10;90.10
24164;DHT22;12319;49.204;8.116;2023-04-01T04:02:58;11.10;90.30
24164;DHT22;12319;49.204;8.116;2023-04-01T04:05:25;11.10;90.50
24164;DHT22;12319;49.204;8.116;2023-04-01T04:07:51;11.10;90.70
24164;DHT22;12319;49.204;8.116;2023-04-01T04:10:17;11.00;90.70
24164;DHT22;12319;49.204;8.116;2023-04-01T04:12:43;11.00;90.90
24164;DHT22;12319;49.204;8.116;2023-04-01T04:15:09;11.00;91.10
24164;DHT22;12319;49.204;8.116;2023-04-01T04:17:35;10.90;91.40
24164;DHT22;12319;49.204;8.116;2023-04-01T04:20:01;10.80;91.30
24164;DHT22;12319;49.204;8.116;2023-04-01T04:22:26;10.80;91.70
24164;DHT22;12319;49.204;8.116;2023-04-01T04:24:52;10.80;91.80
24164;DHT22;12319;49.204;8.116;2023-04-01T04:27:17;10.70;92.10
24164;DHT22;12319;49.204;8.116;2023-04-01T04:29:43;10.70;92.30
24164;DHT22;12319;49.204;8.116;2023-04-01T04:32:09;10.70;92.50
24164;DHT22;12319;49.204;8.116;2023-04-01T04:34:34;10.70;92.40
24164;DHT22;12319;49.204;8.116;2023-04-01T04:37:00;10.60;92.40
24164;DHT22;12319;49.204;8.116;2023-04-01T04:39:26;10.70;92.40
24164;DHT22;12319;49.204;8.116;2023-04-01T04:41:51;10.80;92.50
24164;DHT22;12319;49.204;8.116;2023-04-01T04:44:17;10.70;92.30
24164;DHT22;12319;49.204;8.116;2023-04-01T04:46:43;10.70;92.30
24164;DHT22;12319;49.204;8.116;2023-04-01T04:49:08;10.80;92.20
24164;DHT22;12319;49.204;8.116;2023-04-01T04:51:34;10.80;92.40
24164;DHT22;12319;49.204;8.116;2023-04-01T04:54:02;10.80;92.40
24164;DHT22;12319;49.204;8.116;2023-04-01T04:56:27;10.80;92.30
24164;DHT22;12319;49.204;8.116;2023-04-01T04:58:53;10.80;92.40
24164;DHT22;12319;49.204;8.116;2023-04-01T05:01:19;10.90;92.50
24164;DHT22;12319;49.204;8.116;2023-04-01T05:03:46;10.80;92.50
24164;DHT22;12319;49.204;8.116;2023-04-01T05:06:13;10.80;92.50
24164;DHT22;12319;49.204;8.116;2023-04-01T05:08:40;10.80;92.70
24164;DHT22;12319;49.204;8.116;2023-04-01T05:11:10;10.80;92.60
24164;DHT22;12319;49.204;8.116;2023-04-01T05:13:36;10.80;92.70
24164;DHT22;12319;49.204;8.116;2023-04-01T05:16:02;10.90;92.80
24164;DHT22;12319;49.204;8.116;2023-04-01T05:18:28;10.80;92.80
24164;DHT22;12319;49.204;8.116;2023-04-01T05:20:54;10.80;92.70
24164;DHT22;12319;49.204;8.116;2023-04-01T05:23:21;10.80;92.80
24164;DHT22;12319;49.204;8.116;2023-04-01T05:25:50;10.80;93.20
24164;DHT22;12319;49.204;8.116;2023-04-01T05:28:18;10.80;93.00
24164;DHT22;12319;49.204;8.116;2023-04-01T05:30:44;10.80;93.10
24164;DHT22;12319;49.204;8.116;2023-04-01T05:33:11;10.80;93.00
24164;DHT22;12319;49.204;8.116;2023-04-01T05:35:37;10.80;93.20
24164;DHT22;12319;49.204;8.116;2023-04-01T05:38:03;10.80;93.10
24164;DHT22;12319;49.204;8.116;2023-04-01T05:40:30;10.80;93.00
24164;DHT22;12319;49.204;8.116;2023-04-01T05:42:55;10.80;93.00
24164;DHT22;12319;49.204;8.116;2023-04-01T05:45:21;10.90;93.10
24164;DHT22;12319;49.204;8.116;2023-04-01T05:47:47;10.90;93.10
24164;DHT22;12319;49.204;8.116;2023-04-01T05:50:12;10.90;93.00
24164;DHT22;12319;49.204;8.116;2023-04-01T05:52:38;10.90;93.00
24164;DHT22;12319;49.204;8.116;2023-04-01T05:55:04;10.90;92.70
24164;DHT22;12319;49.204;8.116;2023-04-01T05:57:31;10.90;92.60
24164;DHT22;12319;49.204;8.116;2023-04-01T05:59:56;11.00;93.10
24164;DHT22;12319;49.204;8.116;2023-04-01T06:02:22;10.90;93.00
24164;DHT22;12319;49.204;8.116;2023-04-01T06:04:48;10.90;92.70
24164;DHT22;12319;49.204;8.116;2023-04-01T06:07:16;11.00;93.10
24164;DHT22;12319;49.204;8.116;2023-04-01T06:09:43;10.90;93.00
24164;DHT22;12319;49.204;8.116;2023-04-01T06:12:28;11.00;93.20
24164;DHT22;12319;49.204;8.116;2023-04-01T06:21:03;11.10;93.20
24164;DHT22;12319;49.204;8.116;2023-04-01T06:26:44;11.20;93.10
24164;DHT22;12319;49.204;8.116;2023-04-01T06:32:46;11.20;92.90
24164;DHT22;12319;49.204;8.116;2023-04-01T06:35:35;11.20;93.10
24164;DHT22;12319;49.204;8.116;2023-04-01T06:38:12;11.20;93.10
24164;DHT22;12319;49.204;8.116;2023-04-01T06:41:07;11.20;93.00
24164;DHT22;12319;49.204;8.116;2023-04-01T06:43:56;11.30;93.00
24164;DHT22;12319;49.204;8.116;2023-04-01T06:49:15;11.30;93.10
24164;DHT22;12319;49.204;8.116;2023-04-01T06:51:58;11.20;93.10
24164;DHT22;12319;49.204;8.116;2023-04-01T06:54:34;11.20;93.10
24164;DHT22;12319;49.204;8.116;2023-04-01T06:57:09;11.20;93.20
24164;DHT22;12319;49.204;8.116;2023-04-01T06:59:39;11.20;93.40
24164;DHT22;12319;49.204;8.116;2023-04-01T07:02:19;11.30;93.20
24164;DHT22;12319;49.204;8.116;2023-04-01T07:04:51;11.40;93.10
24164;DHT22;12319;49.204;8.116;2023-04-01T07:07:44;11.40;93.10
24164;DHT22;12319;49.204;8.116;2023-04-01T07:13:32;11.40;93.30
24164;DHT22;12319;49.204;8.116;2023-04-01T07:16:27;11.30;93.20
24164;DHT22;12319;49.204;8.116;2023-04-01T07:19:24;11.30;93.20
24164;DHT22;12319;49.204;8.116;2023-04-01T07:22:03;11.20;93.40
24164;DHT22;12319;49.204;8.116;2023-04-01T07:24:36;11.20;93.70
24164;DHT22;12319;49.204;8.116;2023-04-01T07:27:02;11.20;93.90
24164;DHT22;12319;49.204;8.116;2023-04-01T07:29:28;11.20;94.00
24164;DHT22;12319;49.204;8.116;2023-04-01T07:49:07;11.30;94.50
24164;DHT22;12319;49.204;8.116;2023-04-01T07:54:22;11.30;94.80
24164;DHT22;12319;49.204;8.116;2023-04-01T07:57:00;11.30;94.80
24164;DHT22;12319;49.204;8.116;2023-04-01T08:05:27;11.50;95.50
24164;DHT22;12319;49.204;8.116;2023-04-01T08:10:51;11.70;95.60
24164;DHT22;12319;49.204;8.116;2023-04-01T08:16:41;11.80;95.70
24164;DHT22;12319;49.204;8.116;2023-04-01T08:19:32;11.80;95.70
24164;DHT22;12319;49.204;8.116;2023-04-01T08:22:12;11.80;95.70
24164;DHT22;12319;49.204;8.116;2023-04-01T08:24:44;11.90;95.80
24164;DHT22;12319;49.204;8.116;2023-04-01T08:27:41;11.90;96.00
24164;DHT22;12319;49.204;8.116;2023-04-01T08:35:38;11.90;95.80
24164;DHT22;12319;49.204;8.116;2023-04-01T08:38:14;12.00;96.00
24164;DHT22;12319;49.204;8.116;2023-04-01T08:49:01;12.20;95.80
24164;DHT22;12319;49.204;8.116;2023-04-01T09:05:12;12.40;95.20
24164;DHT22;12319;49.204;8.116;2023-04-01T09:16:42;12.70;95.70
24164;DHT22;12319;49.204;8.116;2023-04-01T09:19:33;12.60;95.40
24164;DHT22;12319;49.204;8.116;2023-04-01T09:22:18;12.70;95.40
24164;DHT22;12319;49.204;8.116;2023-04-01T09:25:14;12.70;95.40
24164;DHT22;12319;49.204;8.116;2023-04-01T09:28:05;12.80;95.50
24164;DHT22;12319;49.204;8.116;2023-04-01T09:33:59;12.90;95.20
24164;DHT22;12319;49.204;8.116;2023-04-01T09:36:44;13.10;95.30
24164;DHT22;12319;49.204;8.116;2023-04-01T09:44:59;13.20;95.00
24164;DHT22;12319;49.204;8.116;2023-04-01T09:47:51;13.20;94.60
24164;DHT22;12319;49.204;8.116;2023-04-01T09:53:20;13.20;94.70
24164;DHT22;12319;49.204;8.116;2023-04-01T09:56:18;13.20;94.80
24164;DHT22;12319;49.204;8.116;2023-04-01T10:07:02;13.50;94.30
24164;DHT22;12319;49.204;8.116;2023-04-01T10:09:58;13.50;94.50
24164;DHT22;12319;49.204;8.116;2023-04-01T10:22:29;14.00;94.30
24164;DHT22;12319;49.204;8.116;2023-04-01T10:34:00;14.00;93.80
24164;DHT22;12319;49.204;8.116;2023-04-01T10:36:52;14.00;94.10
24164;DHT22;12319;49.204;8.116;2023-04-01T10:39:38;14.00;94.00
24164;DHT22;12319;49.204;8.116;2023-04-01T10:51:10;14.20;93.70
24164;DHT22;12319;49.204;8.116;2023-04-01T10:56:50;14.20;93.50
24164;DHT22;12319;49.204;8.116;2023-04-01T11:08:56;14.40;93.40
24164;DHT22;12319;49.204;8.116;2023-04-01T11:28:35;14.10;93.40
24164;DHT22;12319;49.204;8.116;2023-04-01T11:36:55;14.20;93.50
24164;DHT22;12319;49.204;8.116;2023-04-01T11:39:58;14.40;93.60
24164;DHT22;12319;49.204;8.116;2023-04-01T11:42:48;14.60;93.40
24164;DHT22;12319;49.204;8.116;2023-04-01T11:53:22;14.90;92.80
24164;DHT22;12319;49.204;8.116;2023-04-01T11:58:39;14.80;92.70
24164;DHT22;12319;49.204;8.116;2023-04-01T12:01:29;14.80;92.90
24164;DHT22;12319;49.204;8.116;2023-04-01T12:07:19;15.10;92.20
24164;DHT22;12319;49.204;8.116;2023-04-01T12:10:17;15.10;92.00
24164;DHT22;12319;49.204;8.116;2023-04-01T12:13:23;15.20;92.10
24164;DHT22;12319;49.204;8.116;2023-04-01T12:15:56;15.40;92.10
24164;DHT22;12319;49.204;8.116;2023-04-01T12:18:38;15.50;91.80
24164;DHT22;12319;49.204;8.116;2023-04-01T12:21:22;15.60;92.00
24164;DHT22;12319;49.204;8.116;2023-04-01T12:26:42;15.80;91.60
24164;DHT22;12319;49.204;8.116;2023-04-01T12:29:49;15.80;91.40
24164;DHT22;12319;49.204;8.116;2023-04-01T12:45:33;15.20;90.80
24164;DHT22;12319;49.204;8.116;2023-04-01T12:48:22;14.90;90.90
24164;DHT22;12319;49.204;8.116;2023-04-01T12:56:44;14.50;91.40
24164;DHT22;12319;49.204;8.116;2023-04-01T13:08:09;14.80;91.30
24164;DHT22;12319;49.204;8.116;2023-04-01T13:13:29;14.90;91.20
24164;DHT22;12319;49.204;8.116;2023-04-01T13:18:56;14.70;90.90
24164;DHT22;12319;49.204;8.116;2023-04-01T13:21:58;14.60;90.80
24164;DHT22;12319;49.204;8.116;2023-04-01T13:24:51;14.50;90.90
24164;DHT22;12319;49.204;8.116;2023-04-01T13:27:34;14.50;91.00
24164;DHT22;12319;49.204;8.116;2023-04-01T13:30:24;14.50;91.00
24164;DHT22;12319;49.204;8.116;2023-04-01T13:32:57;14.50;91.10
24164;DHT22;12319;49.204;8.116;2023-04-01T13:41:12;14.70;90.90
24164;DHT22;12319;49.204;8.116;2023-04-01T13:43:51;14.70;90.90
24164;DHT22;12319;49.204;8.116;2023-04-01T13:54:52;14.50;90.70
24164;DHT22;12319;49.204;8.116;2023-04-01T14:00:10;14.50;90.70
24164;DHT22;12319;49.204;8.116;2023-04-01T14:02:57;14.50;90.70
24164;DHT22;12319;49.204;8.116;2023-04-01T14:06:11;14.50;90.80
24164;DHT22;12319;49.204;8.116;2023-04-01T14:11:45;14.50;90.70
24164;DHT22;12319;49.204;8.116;2023-04-01T14:14:31;14.60;91.00
24164;DHT22;12319;49.204;8.116;2023-04-01T14:17:27;14.80;91.20
24164;DHT22;12319;49.204;8.116;2023-04-01T14:20:29;14.80;90.80
24164;DHT22;12319;49.204;8.116;2023-04-01T14:34:03;14.50;90.80
24164;DHT22;12319;49.204;8.116;2023-04-01T14:40:00;14.30;91.00
24164;DHT22;12319;49.204;8.116;2023-04-01T14:48:15;14.30;90.70
24164;DHT22;12319;49.204;8.116;2023-04-01T14:50:46;14.40;90.90
24164;DHT22;12319;49.204;8.116;2023-04-01T14:53:26;14.50;90.90
24164;DHT22;12319;49.204;8.116;2023-04-01T14:55:55;14.60;91.00
24164;DHT22;12319;49.204;8.116;2023-04-01T14:58:23;14.60;90.80
24164;DHT22;12319;49.204;8.116;2023-04-01T15:09:59;14.50;91.20
24164;DHT22;12319;49.204;8.116;2023-04-01T15:12:38;14.50;91.00
24164;DHT22;12319;49.204;8.116;2023-04-01T15:31:42;13.90;91.10
24164;DHT22;12319;49.204;8.116;2023-04-01T15:34:32;14.00;91.20
24164;DHT22;12319;49.204;8.116;2023-04-01T15:37:25;14.00;91.10
24164;DHT22;12319;49.204;8.116;2023-04-01T15:42:54;14.00;90.80
24164;DHT22;12319;49.204;8.116;2023-04-01T15:48:38;13.80;90.80
24164;DHT22;12319;49.204;8.116;2023-04-01T15:51:30;13.70;90.90
24164;DHT22;12319;49.204;8.116;2023-04-01T15:54:13;13.60;91.00
24164;DHT22;12319;49.204;8.116;2023-04-01T15:56:49;13.50;91.10
24164;DHT22;12319;49.204;8.116;2023-04-01T16:03:16;13.30;91.40
24164;DHT22;12319;49.204;8.116;2023-04-01T16:05:51;13.20;91.50
24164;DHT22;12319;49.204;8.116;2023-04-01T16:22:59;13.00;91.90
24164;DHT22;12319;49.204;8.116;2023-04-01T16:25:35;12.90;91.50
24164;DHT22;12319;49.204;8.116;2023-04-01T16:31:12;12.90;91.20
24164;DHT22;12319;49.204;8.116;2023-04-01T16:33:57;12.90;91.10
24164;DHT22;12319;49.204;8.116;2023-04-01T16:39:27;12.90;90.80
24164;DHT22;12319;49.204;8.116;2023-04-01T16:42:26;12.80;90.80
24164;DHT22;12319;49.204;8.116;2023-04-01T16:47:54;12.80;90.70
24164;DHT22;12319;49.204;8.116;2023-04-01T16:53:14;12.70;90.80
24164;DHT22;12319;49.204;8.116;2023-04-01T16:55:49;12.70;90.90
24164;DHT22;12319;49.204;8.116;2023-04-01T16:58:37;12.70;90.90
24164;DHT22;12319;49.204;8.116;2023-04-01T17:01:19;12.70;90.90
24164;DHT22;12319;49.204;8.116;2023-04-01T17:03:52;12.70;90.70
24164;DHT22;12319;49.204;8.116;2023-04-01T17:09:22;12.60;90.60
24164;DHT22;12319;49.204;8.116;2023-04-01T17:15:09;12.50;90.80
24164;DHT22;12319;49.204;8.116;2023-04-01T17:20:20;12.40;90.80
24164;DHT22;12319;49.204;8.116;2023-04-01T17:25:41;12.40;90.90
24164;DHT22;12319;49.204;8.116;2023-04-01T17:31:14;12.30;90.80
24164;DHT22;12319;49.204;8.116;2023-04-01T17:36:31;12.20;90.60
24164;DHT22;12319;49.204;8.116;2023-04-01T17:39:08;12.20;90.70
24164;DHT22;12319;49.204;8.116;2023-04-01T17:44:53;12.10;90.70
24164;DHT22;12319;49.204;8.116;2023-04-01T17:47:40;12.00;90.70
24164;DHT22;12319;49.204;8.116;2023-04-01T17:53:16;11.90;90.90
24164;DHT22;12319;49.204;8.116;2023-04-01T17:58:46;11.80;91.00
24164;DHT22;12319;49.204;8.116;2023-04-01T18:06:36;11.60;91.10
24164;DHT22;12319;49.204;8.116;2023-04-01T18:09:13;11.60;91.20
24164;DHT22;12319;49.204;8.116;2023-04-01T18:17:25;11.40;91.50
24164;DHT22;12319;49.204;8.116;2023-04-01T18:22:33;11.40;91.50
24164;DHT22;12319;49.204;8.116;2023-04-01T18:25:19;11.40;91.50
24164;DHT22;12319;49.204;8.116;2023-04-01T18:27:50;11.40;91.50
24164;DHT22;12319;49.204;8.116;2023-04-01T18:30:22;11.40;91.40
24164;DHT22;12319;49.204;8.116;2023-04-01T18:33:05;11.40;91.40
24164;DHT22;12319;49.204;8.116;2023-04-01T18:46:20;11.40;91.30
24164;DHT22;12319;49.204;8.116;2023-04-01T18:51:54;11.40;91.50
24164;DHT22;12319;49.204;8.116;2023-04-01T18:57:15;11.40;91.50
24164;DHT22;12319;49.204;8.116;2023-04-01T18:59:47;11.40;91.40
24164;DHT22;12319;49.204;8.116;2023-04-01T19:02:36;11.40;91.40
24164;DHT22;12319;49.204;8.116;2023-04-01T19:05:20;11.40;91.50
24164;DHT22;12319;49.204;8.116;2023-04-01T19:07:56;11.40;91.60
24164;DHT22;12319;49.204;8.116;2023-04-01T19:13:36;11.40;91.50
24164;DHT22;12319;49.204;8.116;2023-04-01T19:16:19;11.40;91.40
24164;DHT22;12319;49.204;8.116;2023-04-01T19:19:01;11.40;91.40
24164;DHT22;12319;49.204;8.116;2023-04-01T19:28:31;11.40;91.40
24164;DHT22;12319;49.204;8.116;2023-04-01T19:36:07;11.40;91.50
24164;DHT22;12319;49.204;8.116;2023-04-01T19:38:38;11.40;91.60
24164;DHT22;12319;49.204;8.116;2023-04-01T19:41:19;11.40;91.50
24164;DHT22;12319;49.204;8.116;2023-04-01T19:46:35;11.50;91.60
24164;DHT22;12319;49.204;8.116;2023-04-01T20:16:20;11.40;91.90
24164;DHT22;12319;49.204;8.116;2023-04-01T20:19:00;11.40;91.90
24164;DHT22;12319;49.204;8.116;2023-04-01T20:21:36;11.40;91.90
24164;DHT22;12319;49.204;8.116;2023-04-01T20:24:20;11.40;92.00
24164;DHT22;12319;49.204;8.116;2023-04-01T20:26:58;11.40;92.10
24164;DHT22;12319;49.204;8.116;2023-04-01T20:29:37;11.40;92.00
24164;DHT22;12319;49.204;8.116;2023-04-01T20:32:11;11.50;92.10
24164;DHT22;12319;49.204;8.116;2023-04-01T20:38:04;11.40;92.00
24164;DHT22;12319;49.204;8.116;2023-04-01T20:40:40;11.50;92.10
24164;DHT22;12319;49.204;8.116;2023-04-01T20:46:37;11.40;92.10
24164;DHT22;12319;49.204;8.116;2023-04-01T20:57:59;11.40;92.20
24164;DHT22;12319;49.204;8.116;2023-04-01T21:00:50;11.40;92.20
24164;DHT22;12319;49.204;8.116;2023-04-01T21:06:33;11.40;92.10
24164;DHT22;12319;49.204;8.116;2023-04-01T21:11:51;11.40;92.00
24164;DHT22;12319;49.204;8.116;2023-04-01T21:14:49;11.40;92.10
24164;DHT22;12319;49.204;8.116;2023-04-01T21:23:04;11.40;92.30
24164;DHT22;12319;49.204;8.116;2023-04-01T21:25:47;11.40;92.30
24164;DHT22;12319;49.204;8.116;2023-04-01T21:28:41;11.40;92.20
24164;DHT22;12319;49.204;8.116;2023-04-01T21:42:03;11.40;92.30
24164;DHT22;12319;49.204;8.116;2023-04-01T21:44:57;11.40;92.30
24164;DHT22;12319;49.204;8.116;2023-04-01T21:47:48;11.40;92.30
24164;DHT22;12319;49.204;8.116;2023-04-01T21:50:39;11.40;92.30
24164;DHT22;12319;49.204;8.116;2023-04-01T21:55:50;11.40;92.30
24164;DHT22;12319;49.204;8.116;2023-04-01T21:58:52;11.40;92.40
24164;DHT22;12319;49.204;8.116;2023-04-01T22:04:49;11.30;92.60
24164;DHT22;12319;49.204;8.116;2023-04-01T22:07:21;11.30;92.60
24164;DHT22;12319;49.204;8.116;2023-04-01T22:12:24;11.20;92.60
24164;DHT22;12319;49.204;8.116;2023-04-01T22:18:19;11.30;92.80
24164;DHT22;12319;49.204;8.116;2023-04-01T22:21:09;11.30;92.80
24164;DHT22;12319;49.204;8.116;2023-04-01T22:24:16;11.30;92.80
24164;DHT22;12319;49.204;8.116;2023-04-01T22:29:24;11.30;92.70
24164;DHT22;12319;49.204;8.116;2023-04-01T22:31:59;11.30;92.80
24164;DHT22;12319;49.204;8.116;2023-04-01T22:37:27;11.30;92.60
24164;DHT22;12319;49.204;8.116;2023-04-01T22:40:21;11.30;92.60
24164;DHT22;12319;49.204;8.116;2023-04-01T22:43:16;11.30;92.80
24164;DHT22;12319;49.204;8.116;2023-04-01T22:48:29;11.30;92.90
24164;DHT22;12319;49.204;8.116;2023-04-01T22:51:21;11.30;92.80
24164;DHT22;12319;49.204;8.116;2023-04-01T22:56:47;11.20;92.80
24164;DHT22;12319;49.204;8.116;2023-04-01T23:02:01;11.20;93.00
24164;DHT22;12319;49.204;8.116;2023-04-01T23:04:33;11.20;93.00
24164;DHT22;12319;49.204;8.116;2023-04-01T23:07:06;11.20;93.10
24164;DHT22;12319;49.204;8.116;2023-04-01T23:09:39;11.20;93.10
24164;DHT22;12319;49.204;8.116;2023-04-01T23:12:06;11.20;93.20
24164;DHT22;12319;49.204;8.116;2023-04-01T23:14:47;11.20;93.20
24164;DHT22;12319;49.204;8.116;2023-04-01T23:22:59;11.20;93.20
24164;DHT22;12319;49.204;8.116;2023-04-01T23:25:39;11.10;93.30
24164;DHT22;12319;49.204;8.116;2023-04-01T23:33:21;11.10;93.40
24164;DHT22;12319;49.204;8.116;2023-04-01T23:35:57;11.10;93.50
24164;DHT22;12319;49.204;8.116;2023-04-01T23:38:35;11.10;93.40
24164;DHT22;12319;49.204;8.116;2023-04-01T23:41:02;11.10;93.40
24164;DHT22;12319;49.204;8.116;2023-04-01T23:43:35;11.10;93.50
24164;DHT22;12319;49.204;8.116;2023-04-01T23:46:02;11.10;93.50
24164;DHT22;12319;49.204;8.116;2023-04-01T23:48:40;11.10;93.70
24164;DHT22;12319;49.204;8.116;2023-04-01T23:51:27;11.10;93.80
24164;DHT22;12319;49.204;8.116;2023-04-01T23:54:01;11.10;93.90
24164;DHT22;12319;49.204;8.116;2023-04-01T23:56:37;11.10;94.10
24164;DHT22;12319;49.204;8.116;2023-04-01T23:59:03;11.10;94.10
